createdAt,value
2022-10-12T00:00:45.441Z,95191.13
2022-10-12T00:03:13.287Z,95200.63
2022-10-12T00:05:40.223Z,95195.34
2022-10-12T00:08:06.990Z,95181.19
2022-10-12T00:10:33.797Z,95205.53
2022-10-12T00:13:01.016Z,95203.41
2022-10-12T00:15:27.727Z,95195.81
2022-10-12T00:17:54.375Z,95194.53
2022-10-12T00:20:21.016Z,95185.19
2022-10-12T00:22:47.613Z,95180.88
2022-10-12T00:25:14.341Z,95195.34
2022-10-12T00:27:41.002Z,95184.81
2022-10-12T00:30:08.208Z,95192.25
2022-10-12T00:32:34.801Z,95184.47
2022-10-12T00:35:01.516Z,95190.91
2022-10-12T00:37:28.162Z,95189.72
2022-10-12T00:39:54.769Z,95184.53
2022-10-12T00:42:21.406Z,95188.66
2022-10-12T00:44:50.208Z,95193.13
2022-10-12T00:47:32.948Z,95185.19
2022-10-12T00:50:09.739Z,95183.00
2022-10-12T00:52:44.848Z,95181.69
2022-10-12T00:55:14.744Z,95178.84
2022-10-12T00:57:46.717Z,95185.41
2022-10-12T01:00:14.063Z,95172.09
2022-10-12T01:02:42.368Z,95192.84
2022-10-12T01:05:10.124Z,95166.78
2022-10-12T01:07:37.056Z,95177.69
2022-10-12T01:10:04.504Z,95184.06
2022-10-12T01:12:31.471Z,95192.31
2022-10-12T01:14:58.299Z,95176.13
2022-10-12T01:17:40.751Z,95179.78
2022-10-12T01:20:32.421Z,95193.78
2022-10-12T01:23:19.700Z,95192.31
2022-10-12T01:26:24.221Z,95184.44
2022-10-12T01:29:17.924Z,95187.34
2022-10-12T01:31:49.933Z,95178.31
2022-10-12T01:34:32.408Z,95186.72
2022-10-12T01:37:12.457Z,95189.34
2022-10-12T01:39:42.725Z,95178.63
2022-10-12T01:42:16.508Z,95179.09
2022-10-12T01:44:43.192Z,95176.78
2022-10-12T01:47:09.874Z,95174.84
2022-10-12T01:49:36.821Z,95163.97
2022-10-12T01:52:31.149Z,95183.09
2022-10-12T01:55:19.684Z,95182.06
2022-10-12T01:57:52.433Z,95181.41
2022-10-12T02:00:19.479Z,95177.31
2022-10-12T02:03:14.468Z,95180.78
2022-10-12T02:06:01.432Z,95180.50
2022-10-12T02:08:38.449Z,95186.06
2022-10-12T02:11:17.741Z,95173.50
2022-10-12T02:13:50.138Z,95173.91
2022-10-12T02:16:21.197Z,95168.47
2022-10-12T02:18:50.834Z,95167.19
2022-10-12T02:21:21.108Z,95173.75
2022-10-12T02:23:49.481Z,95161.13
2022-10-12T02:26:16.602Z,95162.81
2022-10-12T02:28:45.147Z,95151.13
2022-10-12T02:31:20.746Z,95158.16
2022-10-12T02:34:17.555Z,95147.97
2022-10-12T02:36:46.308Z,95156.59
2022-10-12T02:39:15.724Z,95148.97
2022-10-12T02:41:47.199Z,95156.59
2022-10-12T02:44:16.483Z,95156.88
2022-10-12T02:46:43.462Z,95152.00
2022-10-12T02:49:11.506Z,95160.34
2022-10-12T02:51:40.752Z,95153.59
2022-10-12T02:54:07.882Z,95158.22
2022-10-12T02:56:34.509Z,95163.00
2022-10-12T02:59:01.130Z,95153.94
2022-10-12T03:01:27.824Z,95163.47
2022-10-12T03:03:54.509Z,95160.53
2022-10-12T03:06:21.244Z,95135.22
2022-10-12T03:08:48.071Z,95156.66
2022-10-12T03:11:14.841Z,95153.34
2022-10-12T03:13:41.485Z,95126.00
2022-10-12T03:16:10.112Z,95153.31
2022-10-12T03:18:38.801Z,95145.00
2022-10-12T03:21:06.109Z,95139.84
2022-10-12T03:23:32.790Z,95166.41
2022-10-12T03:26:01.425Z,95148.13
2022-10-12T03:28:28.101Z,95143.50
2022-10-12T03:30:55.343Z,95161.78
2022-10-12T03:33:22.177Z,95154.78
2022-10-12T03:35:49.009Z,95161.50
2022-10-12T03:38:16.579Z,95145.66
2022-10-12T03:40:43.744Z,95171.88
2022-10-12T03:43:10.728Z,95163.47
2022-10-12T03:45:37.793Z,95157.53
2022-10-12T03:48:05.437Z,95162.13
2022-10-12T03:50:34.932Z,95162.53
2022-10-12T03:53:02.929Z,95168.31
2022-10-12T03:55:29.556Z,95162.75
2022-10-12T03:57:56.160Z,95170.03
2022-10-12T04:00:22.872Z,95165.34
2022-10-12T04:02:49.492Z,95166.78
2022-10-12T04:05:16.154Z,95163.97
2022-10-12T04:07:42.829Z,95168.75
2022-10-12T04:10:09.626Z,95162.34
2022-10-12T04:12:36.370Z,95169.97
2022-10-12T04:15:03.065Z,95162.56
2022-10-12T04:17:29.669Z,95166.00
2022-10-12T04:19:56.357Z,95168.16
2022-10-12T04:22:24.808Z,95175.75
2022-10-12T04:24:51.480Z,95174.72
2022-10-12T04:27:18.138Z,95169.81
2022-10-12T04:29:44.850Z,95167.81
2022-10-12T04:32:12.733Z,95166.75
2022-10-12T04:34:39.900Z,95162.16
2022-10-12T04:37:06.701Z,95174.88
2022-10-12T04:39:33.402Z,95175.03
2022-10-12T04:42:00.046Z,95165.81
2022-10-12T04:44:31.261Z,95179.31
2022-10-12T04:46:58.998Z,95174.50
2022-10-12T04:49:25.621Z,95169.09
2022-10-12T04:51:52.235Z,95169.16
2022-10-12T04:54:18.867Z,95168.16
2022-10-12T04:56:47.960Z,95181.03
2022-10-12T04:59:15.144Z,95181.69
2022-10-12T05:01:41.901Z,95185.94
2022-10-12T05:04:08.626Z,95174.44
2022-10-12T05:06:35.271Z,95173.16
2022-10-12T05:09:01.944Z,95180.88
2022-10-12T05:11:28.584Z,95172.78
2022-10-12T05:13:55.212Z,95180.06
2022-10-12T05:16:22.122Z,95186.03
2022-10-12T05:18:48.787Z,95174.84
2022-10-12T05:21:15.662Z,95189.66
2022-10-12T05:23:42.284Z,95187.66
2022-10-12T05:26:08.925Z,95178.09
2022-10-12T05:28:40.597Z,95186.06
2022-10-12T05:31:07.760Z,95189.44
2022-10-12T05:33:34.385Z,95191.09
2022-10-12T05:36:01.006Z,95190.28
2022-10-12T05:38:27.650Z,95180.25
2022-10-12T05:40:59.208Z,95174.47
2022-10-12T05:43:26.860Z,95187.31
2022-10-12T05:45:53.449Z,95197.25
2022-10-12T05:48:20.176Z,95193.28
2022-10-12T05:50:46.872Z,95193.50
2022-10-12T05:53:13.753Z,95196.34
2022-10-12T05:55:40.420Z,95188.41
2022-10-12T05:58:07.052Z,95206.59
2022-10-12T06:00:33.684Z,95191.75
2022-10-12T06:03:00.298Z,95198.00
2022-10-12T06:05:26.912Z,95208.88
2022-10-12T06:07:53.524Z,95207.25
2022-10-12T06:10:20.190Z,95208.69
2022-10-12T06:12:46.837Z,95213.81
2022-10-12T06:15:13.493Z,95193.19
2022-10-12T06:17:40.171Z,95188.44
2022-10-12T06:20:07.343Z,95205.38
2022-10-12T06:22:34.106Z,95212.75
2022-10-12T06:25:00.999Z,95204.91
2022-10-12T06:27:27.629Z,95201.28
2022-10-12T06:29:54.222Z,95200.63
2022-10-12T06:32:20.912Z,95210.50
2022-10-12T06:34:47.536Z,95208.41
2022-10-12T06:37:37.123Z,95209.88
2022-10-12T06:40:00.836Z,95207.41
2022-10-12T06:42:27.457Z,95217.28
2022-10-12T06:44:54.361Z,95210.84
2022-10-12T06:47:21.051Z,95206.19
2022-10-12T06:49:47.737Z,95215.59
2022-10-12T06:52:14.469Z,95199.91
2022-10-12T06:54:41.524Z,95206.47
2022-10-12T06:57:08.200Z,95211.75
2022-10-12T06:59:34.852Z,95209.34
2022-10-12T07:02:01.572Z,95202.41
2022-10-12T07:04:28.282Z,95206.41
2022-10-12T07:06:54.968Z,95222.44
2022-10-12T07:09:21.625Z,95210.53
2022-10-12T07:11:48.221Z,95215.16
2022-10-12T07:14:14.852Z,95222.75
2022-10-12T07:16:41.497Z,95219.44
2022-10-12T07:19:08.115Z,95217.97
2022-10-12T07:21:34.735Z,95212.00
2022-10-12T07:24:01.370Z,95216.75
2022-10-12T07:26:28.187Z,95225.00
2022-10-12T07:28:54.837Z,95225.97
2022-10-12T07:31:21.525Z,95219.56
2022-10-12T07:33:48.162Z,95227.28
2022-10-12T07:36:20.579Z,95225.44
2022-10-12T07:38:49.077Z,95233.03
2022-10-12T07:41:16.015Z,95234.63
2022-10-12T07:43:42.784Z,95227.16
2022-10-12T07:46:09.818Z,95235.22
2022-10-12T07:48:36.565Z,95234.94
2022-10-12T07:51:07.631Z,95228.84
2022-10-12T07:53:35.013Z,95239.66
2022-10-12T07:56:03.194Z,95247.75
2022-10-12T07:58:29.882Z,95242.47
2022-10-12T08:00:57.217Z,95241.16
2022-10-12T08:03:23.821Z,95234.22
2022-10-12T08:05:50.445Z,95238.66
2022-10-12T08:08:17.077Z,95238.31
2022-10-12T08:10:43.737Z,95223.09
2022-10-12T08:13:10.351Z,95236.34
2022-10-12T08:15:36.983Z,95223.13
2022-10-12T08:18:03.723Z,95205.09
2022-10-12T08:20:30.349Z,95238.94
2022-10-12T08:22:56.953Z,95241.06
2022-10-12T08:25:23.625Z,95232.00
2022-10-12T08:27:50.224Z,95244.88
2022-10-12T08:30:17.048Z,95240.41
2022-10-12T08:32:43.678Z,95236.44
2022-10-12T08:35:10.286Z,95244.09
2022-10-12T08:37:37.122Z,95244.44
2022-10-12T08:40:08.137Z,95236.81
2022-10-12T08:42:44.651Z,95244.03
2022-10-12T08:45:30.657Z,95229.84
2022-10-12T08:48:24.637Z,95222.47
2022-10-12T08:53:31.244Z,95229.22
2022-10-12T08:55:59.127Z,95231.25
2022-10-12T08:58:31.595Z,95238.84
2022-10-12T09:01:06.396Z,95235.84
2022-10-12T09:03:48.084Z,95245.81
2022-10-12T09:06:24.762Z,95211.03
2022-10-12T09:09:06.715Z,95250.00
2022-10-12T09:11:54.364Z,95246.22
2022-10-12T09:14:40.018Z,95256.31
2022-10-12T09:17:28.560Z,95245.78
2022-10-12T09:20:04.969Z,95254.75
2022-10-12T09:22:34.616Z,95254.69
2022-10-12T09:25:02.653Z,95244.94
2022-10-12T09:27:31.168Z,95253.03
2022-10-12T09:30:03.757Z,95249.19
2022-10-12T09:32:54.849Z,95242.81
2022-10-12T09:35:21.565Z,95248.09
2022-10-12T09:37:51.434Z,95243.75
2022-10-12T09:40:36.412Z,95239.66
2022-10-12T09:43:04.002Z,95228.47
2022-10-12T09:45:33.706Z,95232.16
2022-10-12T09:48:09.021Z,95232.53
2022-10-12T09:50:56.375Z,95228.75
2022-10-12T09:53:31.985Z,95203.78
2022-10-12T09:56:06.269Z,95235.53
2022-10-12T09:58:40.400Z,95239.31
2022-10-12T10:01:23.811Z,95232.28
2022-10-12T10:04:16.710Z,95203.09
2022-10-12T10:06:45.817Z,95213.28
2022-10-12T10:09:26.427Z,95218.50
2022-10-12T10:11:53.498Z,95215.72
2022-10-12T10:14:20.292Z,95230.78
2022-10-12T10:16:50.065Z,95237.59
2022-10-12T10:19:19.122Z,95217.22
2022-10-12T10:21:45.971Z,95214.75
2022-10-12T10:24:32.832Z,95236.06
2022-10-12T10:27:04.928Z,95237.25
2022-10-12T10:29:39.781Z,95241.34
2022-10-12T10:32:24.280Z,95224.00
2022-10-12T10:35:19.374Z,95249.69
2022-10-12T10:37:51.705Z,95248.41
2022-10-12T10:40:23.357Z,95237.00
2022-10-12T10:42:52.924Z,95246.69
2022-10-12T10:45:25.626Z,95248.78
2022-10-12T10:47:56.566Z,95233.38
2022-10-12T10:50:31.382Z,95228.41
2022-10-12T10:53:00.935Z,95223.38
2022-10-12T10:56:04.604Z,95235.28
2022-10-12T10:58:46.036Z,95246.25
2022-10-12T11:01:26.732Z,95237.47
2022-10-12T11:03:59.474Z,95243.66
2022-10-12T11:06:43.935Z,95237.25
2022-10-12T11:09:17.746Z,95250.72
2022-10-12T11:11:46.462Z,95214.44
2022-10-12T11:14:22.299Z,95224.53
2022-10-12T11:16:56.033Z,95240.88
2022-10-12T11:19:48.870Z,95232.47
2022-10-12T11:22:22.560Z,95230.38
2022-10-12T11:25:03.825Z,95220.88
2022-10-12T11:27:36.005Z,95218.22
2022-10-12T11:30:10.061Z,95225.97
2022-10-12T11:32:40.467Z,95221.88
2022-10-12T11:35:08.090Z,95205.03
2022-10-12T11:37:47.445Z,95199.16
2022-10-12T11:40:47.862Z,95213.88
2022-10-12T11:43:14.033Z,95205.09
2022-10-12T11:45:43.755Z,95211.34
2022-10-12T11:48:14.945Z,95207.06
2022-10-12T11:50:45.309Z,95186.72
2022-10-12T11:53:26.069Z,95189.69
2022-10-12T11:56:16.187Z,95195.31
2022-10-12T11:59:01.324Z,95200.81
2022-10-12T12:01:43.883Z,95196.22
2022-10-12T12:07:22.946Z,95194.88
2022-10-12T12:09:51.174Z,95185.03
2022-10-12T12:12:23.884Z,95191.53
2022-10-12T12:14:53.166Z,95196.56
2022-10-12T12:17:19.763Z,95192.16
2022-10-12T12:19:51.543Z,95188.88
2022-10-12T12:22:23.644Z,95186.09
2022-10-12T12:25:05.529Z,95179.22
2022-10-12T12:27:40.818Z,95180.44
2022-10-12T12:30:19.615Z,95189.66
2022-10-12T12:32:47.685Z,95175.22
2022-10-12T12:35:26.068Z,95170.53
2022-10-12T12:38:00.971Z,95176.03
2022-10-12T12:40:27.762Z,95164.06
2022-10-12T12:43:19.212Z,95176.06
2022-10-12T12:46:00.321Z,95174.13
2022-10-12T12:48:39.276Z,95176.50
2022-10-12T12:51:35.317Z,95169.94
2022-10-12T12:54:15.604Z,95170.72
2022-10-12T12:56:51.303Z,95172.81
2022-10-12T12:59:33.118Z,95175.09
2022-10-12T13:02:42.825Z,95178.06
2022-10-12T13:05:36.269Z,95154.09
2022-10-12T13:08:14.928Z,95170.50
2022-10-12T13:11:15.927Z,95163.31
2022-10-12T13:13:50.613Z,95163.84
2022-10-12T13:19:29.355Z,95145.91
2022-10-12T13:21:56.705Z,95145.22
2022-10-12T13:24:43.072Z,95153.75
2022-10-12T13:27:20.114Z,95159.81
2022-10-12T13:29:55.366Z,95136.59
2022-10-12T13:32:33.090Z,95151.19
2022-10-12T13:35:05.597Z,95158.38
2022-10-12T13:37:35.024Z,95151.63
2022-10-12T13:40:03.965Z,95151.00
2022-10-12T13:42:32.693Z,95149.38
2022-10-12T13:44:59.788Z,95154.91
2022-10-12T13:47:28.766Z,95137.91
2022-10-12T13:49:56.633Z,95145.88
2022-10-12T13:52:32.579Z,95132.63
2022-10-12T13:55:00.519Z,95137.31
2022-10-12T13:57:36.148Z,95137.44
2022-10-12T14:00:25.449Z,95132.78
2022-10-12T14:03:00.305Z,95144.97
2022-10-12T14:05:29.232Z,95140.00
2022-10-12T14:08:02.107Z,95136.84
2022-10-12T14:10:32.035Z,95137.53
2022-10-12T14:12:58.879Z,95127.72
2022-10-12T14:15:28.200Z,95128.56
2022-10-12T14:17:55.026Z,95131.06
2022-10-12T14:20:39.928Z,95125.38
2022-10-12T14:23:14.629Z,95128.91
2022-10-12T14:25:54.086Z,95118.03
2022-10-12T14:28:29.057Z,95122.16
2022-10-12T14:30:56.274Z,95130.75
2022-10-12T14:33:25.623Z,95134.72
2022-10-12T14:35:52.856Z,95128.84
2022-10-12T14:38:41.706Z,95125.34
2022-10-12T14:41:29.756Z,95125.75
2022-10-12T14:44:26.972Z,95115.75
2022-10-12T14:47:07.426Z,95124.16
2022-10-12T14:49:44.061Z,95127.63
2022-10-12T14:52:22.771Z,95126.00
2022-10-12T14:54:53.856Z,95129.25
2022-10-12T14:57:22.865Z,95129.88
2022-10-12T14:59:49.856Z,95129.69
2022-10-12T15:02:30.487Z,95127.00
2022-10-12T15:04:57.713Z,95125.97
2022-10-12T15:07:31.620Z,95130.03
2022-10-12T15:09:58.631Z,95129.25
2022-10-12T15:12:26.173Z,95123.28
2022-10-12T15:14:55.580Z,95130.88
2022-10-12T15:17:22.184Z,95124.53
2022-10-12T15:19:49.896Z,95131.31
2022-10-12T15:22:21.841Z,95124.16
2022-10-12T15:24:49.245Z,95130.91
2022-10-12T15:27:16.253Z,95132.94
2022-10-12T15:29:43.081Z,95105.91
2022-10-12T15:32:11.189Z,95106.72
2022-10-12T15:34:37.957Z,95117.38
2022-10-12T15:37:08.874Z,95122.72
2022-10-12T15:39:36.142Z,95112.88
2022-10-12T15:42:02.979Z,95110.19
2022-10-12T15:44:30.681Z,95112.25
2022-10-12T15:46:57.292Z,95103.34
2022-10-12T15:49:24.536Z,95109.38
2022-10-12T15:51:55.009Z,95105.41
2022-10-12T15:54:22.230Z,95115.38
2022-10-12T15:56:48.886Z,95119.03
2022-10-12T15:59:16.935Z,95107.97
2022-10-12T16:01:43.681Z,95086.38
2022-10-12T16:04:13.012Z,95118.47
2022-10-12T16:06:39.764Z,95121.69
2022-10-12T16:09:06.479Z,95119.81
2022-10-12T16:11:33.093Z,95120.97
2022-10-12T16:13:59.804Z,95100.56
2022-10-12T16:16:26.553Z,95121.63
2022-10-12T16:18:54.104Z,95109.94
2022-10-12T16:21:20.840Z,95123.09
2022-10-12T16:23:47.533Z,95115.50
2022-10-12T16:26:15.039Z,95116.72
2022-10-12T16:28:42.289Z,95119.88
2022-10-12T16:31:11.258Z,95114.25
2022-10-12T16:33:38.116Z,95110.03
2022-10-12T16:36:10.064Z,95086.53
2022-10-12T16:38:37.012Z,95105.44
2022-10-12T16:41:11.781Z,95103.50
2022-10-12T16:43:38.565Z,95117.09
2022-10-12T16:46:05.292Z,95120.88
2022-10-12T16:48:32.310Z,95119.28
2022-10-12T16:50:59.130Z,95123.84
2022-10-12T16:53:25.865Z,95119.09
2022-10-12T16:55:52.614Z,95123.38
2022-10-12T16:58:20.350Z,95137.19
2022-10-12T17:00:47.057Z,95123.91
2022-10-12T17:03:14.291Z,95142.97
2022-10-12T17:05:42.178Z,95149.38
2022-10-12T17:08:13.975Z,95139.75
2022-10-12T17:10:44.844Z,95138.81
2022-10-12T17:13:13.591Z,95102.34
2022-10-12T17:15:41.849Z,95120.69
2022-10-12T17:18:09.221Z,95147.38
2022-10-12T17:20:36.719Z,95143.44
2022-10-12T17:23:03.516Z,95143.47
2022-10-12T17:25:30.181Z,95151.94
2022-10-12T17:27:56.840Z,95153.66
2022-10-12T17:30:23.434Z,95144.13
2022-10-12T17:32:50.065Z,95151.47
2022-10-12T17:35:16.758Z,95170.25
2022-10-12T17:37:43.381Z,95145.06
2022-10-12T17:40:10.786Z,95163.19
2022-10-12T17:42:37.465Z,95168.16
2022-10-12T17:45:04.611Z,95161.41
2022-10-12T17:47:31.250Z,95149.53
2022-10-12T17:49:57.937Z,95170.31
2022-10-12T17:52:24.670Z,95167.50
2022-10-12T17:54:51.311Z,95175.06
2022-10-12T17:57:18.360Z,95158.59
2022-10-12T17:59:45.603Z,95165.81
2022-10-12T18:02:12.357Z,95151.31
2022-10-12T18:04:39.113Z,95165.00
2022-10-12T18:07:06.740Z,95141.72
2022-10-12T18:09:33.379Z,95153.75
2022-10-12T18:12:00.062Z,95155.25
2022-10-12T18:14:26.758Z,95172.72
2022-10-12T18:16:54.430Z,95165.16
2022-10-12T18:19:21.100Z,95161.00
2022-10-12T18:21:47.755Z,95168.63
2022-10-12T18:24:17.816Z,95169.09
2022-10-12T18:26:47.149Z,95163.19
2022-10-12T18:29:14.110Z,95168.63
2022-10-12T18:31:40.748Z,95186.59
2022-10-12T18:34:07.502Z,95180.00
2022-10-12T18:36:34.394Z,95180.66
2022-10-12T18:39:01.915Z,95178.69
2022-10-12T18:41:28.725Z,95170.91
2022-10-12T18:44:00.411Z,95164.56
2022-10-12T18:46:28.801Z,95164.38
2022-10-12T18:48:56.092Z,95175.38
2022-10-12T18:51:26.345Z,95181.72
2022-10-12T18:53:53.137Z,95189.59
2022-10-12T18:56:20.116Z,95170.50
2022-10-12T18:58:47.272Z,95195.22
2022-10-12T19:01:17.825Z,95172.44
2022-10-12T19:03:44.828Z,95187.13
2022-10-12T19:06:14.380Z,95195.88
2022-10-12T19:08:43.496Z,95186.00
2022-10-12T19:11:10.980Z,95179.72
2022-10-12T19:13:39.100Z,95187.47
2022-10-12T19:16:14.664Z,95194.88
2022-10-12T19:18:42.178Z,95193.91
2022-10-12T19:21:14.247Z,95170.78
2022-10-12T19:23:41.458Z,95177.03
2022-10-12T19:26:11.227Z,95187.78
2022-10-12T19:28:37.908Z,95180.66
2022-10-12T19:31:13.257Z,95172.78
2022-10-12T19:33:40.252Z,95164.16
2022-10-12T19:36:08.419Z,95160.22
2022-10-12T19:38:36.077Z,95166.16
2022-10-12T19:41:02.914Z,95171.09
2022-10-12T19:43:29.812Z,95175.09
2022-10-12T19:45:56.442Z,95167.63
2022-10-12T19:48:23.086Z,95167.28
2022-10-12T19:51:01.555Z,95154.25
2022-10-12T19:53:29.293Z,95163.50
2022-10-12T19:56:04.560Z,95181.66
2022-10-12T19:58:31.697Z,95161.22
2022-10-12T20:01:08.096Z,95164.66
2022-10-12T20:03:35.823Z,95161.88
2022-10-12T20:06:06.231Z,95161.53
2022-10-12T20:08:33.277Z,95143.13
2022-10-12T20:11:00.206Z,95149.78
2022-10-12T20:13:26.873Z,95153.75
2022-10-12T20:15:54.664Z,95183.81
2022-10-12T20:18:21.809Z,95185.66
2022-10-12T20:20:48.725Z,95199.84
2022-10-12T20:23:16.013Z,95192.28
2022-10-12T20:25:44.151Z,95158.50
2022-10-12T20:28:11.129Z,95161.97
2022-10-12T20:30:38.038Z,95182.03
2022-10-12T20:33:05.000Z,95168.88
2022-10-12T20:35:31.750Z,95178.06
2022-10-12T20:37:58.449Z,95173.78
2022-10-12T20:40:25.175Z,95172.00
2022-10-12T20:42:51.796Z,95190.13
2022-10-12T20:45:18.941Z,95199.56
2022-10-12T20:47:45.603Z,95159.06
2022-10-12T20:50:13.013Z,95199.75
2022-10-12T20:52:42.969Z,95203.38
2022-10-12T20:55:09.936Z,95193.31
2022-10-12T20:57:36.643Z,95182.44
2022-10-12T21:00:03.948Z,95179.50
2022-10-12T21:02:30.593Z,95190.66
2022-10-12T21:04:57.281Z,95189.38
2022-10-12T21:07:23.962Z,95158.06
2022-10-12T21:09:51.325Z,95173.56
2022-10-12T21:12:18.087Z,95189.41
2022-10-12T21:14:44.949Z,95203.25
2022-10-12T21:17:11.823Z,95198.66
2022-10-12T21:19:38.501Z,95184.47
2022-10-12T21:22:05.193Z,95183.34
2022-10-12T21:24:31.964Z,95186.31
2022-10-12T21:26:58.631Z,95173.28
2022-10-12T21:29:25.364Z,95189.09
2022-10-12T21:31:52.053Z,95175.13
2022-10-12T21:34:18.729Z,95172.13
2022-10-12T21:36:45.414Z,95176.91
2022-10-12T21:39:14.380Z,95190.44
2022-10-12T21:41:41.125Z,95165.38
2022-10-12T21:44:07.850Z,95182.66
2022-10-12T21:46:35.879Z,95169.31
2022-10-12T21:49:04.325Z,95182.47
2022-10-12T21:51:32.100Z,95175.06
2022-10-12T21:53:59.091Z,95176.38
2022-10-12T21:56:35.364Z,95166.47
2022-10-12T21:59:03.846Z,95162.03
2022-10-12T22:01:35.963Z,95169.63
2022-10-12T22:04:05.732Z,95152.13
2022-10-12T22:06:32.768Z,95153.75
2022-10-12T22:09:02.193Z,95148.50
2022-10-12T22:11:30.971Z,95138.28
2022-10-12T22:14:04.111Z,95143.59
2022-10-12T22:16:31.172Z,95137.28
2022-10-12T22:19:02.641Z,95159.03
2022-10-12T22:21:30.331Z,95161.47
2022-10-12T22:23:57.084Z,95156.38
2022-10-12T22:26:24.208Z,95153.91
2022-10-12T22:28:50.988Z,95132.66
2022-10-12T22:31:19.341Z,95139.25
2022-10-12T22:33:46.330Z,95157.53
2022-10-12T22:36:13.785Z,95137.78
2022-10-12T22:38:40.600Z,95147.66
2022-10-12T22:41:10.503Z,95146.84
2022-10-12T22:43:37.749Z,95132.94
2022-10-12T22:46:04.724Z,95125.09
2022-10-12T22:48:32.017Z,95124.13
2022-10-12T22:50:58.695Z,95109.44
2022-10-12T22:53:25.937Z,95119.00
2022-10-12T22:56:00.779Z,95115.53
2022-10-12T22:58:28.264Z,95128.25
2022-10-12T23:01:05.565Z,95131.19
2022-10-12T23:03:33.294Z,95089.34
2022-10-12T23:06:00.034Z,95119.13
2022-10-12T23:08:27.151Z,95133.97
2022-10-12T23:10:53.830Z,95125.75
2022-10-12T23:13:20.570Z,95093.47
2022-10-12T23:15:47.204Z,95133.50
2022-10-12T23:18:15.193Z,95145.22
2022-10-12T23:20:42.167Z,95134.28
2022-10-12T23:23:08.965Z,95133.78
2022-10-12T23:25:35.607Z,95114.00
2022-10-12T23:28:02.238Z,95125.72
2022-10-12T23:30:28.875Z,95138.06
2022-10-12T23:32:55.517Z,95124.75
2022-10-12T23:35:22.123Z,95125.84
2022-10-12T23:37:48.773Z,95136.69
2022-10-12T23:40:15.432Z,95132.59
2022-10-12T23:42:42.072Z,95130.44
2022-10-12T23:45:09.127Z,95134.28
2022-10-12T23:47:35.760Z,95119.34
2022-10-12T23:50:02.378Z,95135.41
2022-10-12T23:52:29.260Z,95135.41
2022-10-12T23:54:55.875Z,95133.13
2022-10-12T23:57:45.511Z,95123.22
